createdAt,value
2019-05-26T00:00:25.925Z,5.53
2019-05-26T00:02:53.584Z,5.87
2019-05-26T00:05:21.194Z,5.90
2019-05-26T00:07:48.824Z,4.93
2019-05-26T00:10:16.568Z,5.67
2019-05-26T00:12:44.233Z,5.47
2019-05-26T00:15:12.621Z,5.87
2019-05-26T00:17:40.312Z,4.93
2019-05-26T00:20:08.750Z,5.37
2019-05-26T00:22:36.297Z,5.43
2019-05-26T00:25:04.206Z,5.00
2019-05-26T00:27:31.785Z,4.47
2019-05-26T00:29:59.368Z,5.67
2019-05-26T00:32:26.980Z,4.90
2019-05-26T00:34:54.632Z,5.03
2019-05-26T00:37:22.234Z,6.57
2019-05-26T00:39:49.871Z,5.23
2019-05-26T00:42:17.592Z,4.43
2019-05-26T00:44:45.149Z,5.77
2019-05-26T00:47:12.935Z,5.27
2019-05-26T00:49:40.577Z,5.50
2019-05-26T00:52:08.261Z,4.87
2019-05-26T00:54:35.889Z,5.93
2019-05-26T00:57:03.594Z,4.90
2019-05-26T00:59:31.231Z,5.03
2019-05-26T01:01:58.918Z,6.03
2019-05-26T01:04:26.567Z,5.80
2019-05-26T01:06:54.205Z,5.20
2019-05-26T01:31:55.031Z,5.57
2019-05-26T01:38:22.241Z,5.23
2019-05-26T01:40:39.885Z,5.07
2019-05-26T01:44:10.324Z,4.70
2019-05-26T06:01:59.614Z,4.67
2019-05-26T06:04:27.546Z,4.93
2019-05-26T06:06:55.331Z,4.60
2019-05-26T06:09:23.087Z,4.97
2019-05-26T06:11:55.885Z,4.10
2019-05-26T06:14:20.659Z,4.23
2019-05-26T06:16:48.361Z,4.77
2019-05-26T06:19:16.282Z,4.70
2019-05-26T06:21:44.270Z,5.63
2019-05-26T06:24:12.220Z,4.77
2019-05-26T06:26:41.473Z,5.13
2019-05-26T06:29:09.220Z,5.17
2019-05-26T06:31:37.418Z,4.27
2019-05-26T06:34:05.499Z,3.83
2019-05-26T06:36:33.742Z,4.80
2019-05-26T06:39:02.452Z,4.30
2019-05-26T06:41:33.911Z,4.23
2019-05-26T06:43:59.745Z,4.77
2019-05-26T06:46:28.373Z,3.40
2019-05-26T06:48:57.869Z,4.43
2019-05-26T06:51:25.542Z,4.10
2019-05-26T06:53:53.074Z,3.63
2019-05-26T06:56:20.728Z,4.00
2019-05-26T06:58:48.309Z,3.73
2019-05-26T07:01:15.846Z,4.73
2019-05-26T07:03:43.371Z,4.33
2019-05-26T07:06:10.942Z,4.50
2019-05-26T07:08:38.542Z,5.13
2019-05-26T07:11:06.074Z,3.30
2019-05-26T07:13:33.609Z,5.30
2019-05-26T07:16:01.124Z,4.87
2019-05-26T07:18:28.653Z,4.90
2019-05-26T07:20:56.159Z,3.87
2019-05-26T07:23:23.736Z,4.83
2019-05-26T07:25:51.313Z,5.13
2019-05-26T07:28:18.868Z,4.17
2019-05-26T07:30:46.592Z,5.00
2019-05-26T07:33:14.151Z,3.93
2019-05-26T07:35:42.793Z,3.90
2019-05-26T07:38:10.434Z,4.00
2019-05-26T07:40:38.013Z,3.87
2019-05-26T07:43:05.617Z,3.33
2019-05-26T07:45:33.238Z,4.87
2019-05-26T07:48:01.945Z,4.30
2019-05-26T07:50:29.658Z,3.17
2019-05-26T07:52:57.344Z,4.20
2019-05-26T07:55:24.940Z,5.37
2019-05-26T07:57:52.507Z,3.73
2019-05-26T08:00:20.309Z,5.00
2019-05-26T08:02:48.045Z,3.43
2019-05-26T08:05:15.707Z,3.37
2019-05-26T08:07:43.280Z,4.70
2019-05-26T08:10:11.094Z,3.60
2019-05-26T08:12:38.696Z,4.57
2019-05-26T08:15:07.471Z,4.20
2019-05-26T08:17:35.045Z,4.53
2019-05-26T08:20:02.667Z,3.07
2019-05-26T08:22:30.322Z,3.00
2019-05-26T08:24:57.910Z,4.70
2019-05-26T08:27:25.950Z,2.70
2019-05-26T08:29:53.517Z,3.10
2019-05-26T08:32:21.129Z,3.67
2019-05-26T08:34:48.868Z,3.00
2019-05-26T08:37:16.576Z,3.33
2019-05-26T08:39:48.008Z,4.57
2019-05-26T08:42:26.324Z,4.23
2019-05-26T08:44:43.075Z,3.03
2019-05-26T08:47:10.887Z,3.27
2019-05-26T08:49:38.590Z,3.63
2019-05-26T08:52:06.270Z,4.30
2019-05-26T08:54:34.093Z,3.37
2019-05-26T08:57:01.715Z,3.43
2019-05-26T08:59:29.479Z,4.07
2019-05-26T09:01:57.345Z,2.87
2019-05-26T09:04:25.200Z,3.10
2019-05-26T09:06:53.022Z,4.17
2019-05-26T09:09:21.209Z,3.27
2019-05-26T09:11:49.190Z,3.23
2019-05-26T09:14:18.005Z,3.13
2019-05-26T09:16:45.925Z,2.47
2019-05-26T09:19:19.474Z,3.70
2019-05-26T09:21:51.590Z,2.13
2019-05-26T09:24:21.044Z,2.83
2019-05-26T09:26:52.481Z,2.43
2019-05-26T09:29:30.730Z,2.53
2019-05-26T09:31:58.663Z,2.87
2019-05-26T09:34:27.734Z,3.13
2019-05-26T09:36:58.515Z,2.70
2019-05-26T09:39:29.380Z,3.30
2019-05-26T09:41:57.657Z,2.37
2019-05-26T09:44:26.296Z,3.80
2019-05-26T09:46:54.626Z,3.40
2019-05-26T09:49:25.056Z,3.50
2019-05-26T09:51:54.367Z,2.93
2019-05-26T09:54:23.070Z,2.37
2019-05-26T09:56:51.507Z,3.10
2019-05-26T09:59:21.521Z,2.23
2019-05-26T10:01:50.582Z,2.57
2019-05-26T10:04:20.713Z,2.30
2019-05-26T10:06:51.256Z,2.70
2019-05-26T10:09:18.932Z,3.00
2019-05-26T10:11:47.072Z,3.67
2019-05-26T10:14:14.888Z,3.50
2019-05-26T10:16:42.806Z,7.23
2019-05-26T10:19:10.578Z,12.53
2019-05-26T10:21:38.343Z,3.53
2019-05-26T10:24:06.087Z,2.90
2019-05-26T10:26:34.001Z,5.13
2019-05-26T10:29:01.761Z,3.27
2019-05-26T10:31:32.506Z,2.80
2019-05-26T10:34:00.479Z,3.07
2019-05-26T10:36:28.546Z,2.90
2019-05-26T10:41:33.637Z,3.80
2019-05-26T10:44:03.878Z,2.50
2019-05-26T10:46:38.835Z,2.80
2019-05-26T10:49:06.517Z,2.90
2019-05-26T10:51:34.136Z,2.57
2019-05-26T10:54:01.865Z,2.20
2019-05-26T10:56:40.652Z,3.70
2019-05-26T10:59:10.598Z,2.53
2019-05-26T11:01:38.190Z,3.10
2019-05-26T11:04:07.032Z,2.40
2019-05-26T11:06:34.740Z,2.40
2019-05-26T11:09:03.402Z,2.67
2019-05-26T11:11:31.192Z,2.90
2019-05-26T11:14:02.980Z,3.87
2019-05-26T11:16:31.450Z,4.20
2019-05-26T11:19:14.167Z,2.80
2019-05-26T11:21:44.781Z,2.30
2019-05-26T11:24:15.956Z,2.33
2019-05-26T11:26:43.697Z,2.37
2019-05-26T11:29:12.927Z,3.10
2019-05-26T11:31:41.465Z,2.90
2019-05-26T11:34:26.824Z,3.57
2019-05-26T11:36:54.955Z,2.63
2019-05-26T11:39:23.667Z,3.33
2019-05-26T11:41:54.879Z,2.03
2019-05-26T11:44:21.573Z,3.70
2019-05-26T11:50:43.735Z,3.23
2019-05-26T11:53:16.855Z,3.30
2019-05-26T11:55:45.732Z,3.80
2019-05-26T11:58:13.405Z,3.00
2019-05-26T12:01:03.989Z,3.10
2019-05-26T12:03:44.643Z,2.70
2019-05-26T12:06:20.708Z,3.33
2019-05-26T12:09:00.674Z,3.57
2019-05-26T12:11:33.266Z,3.60
2019-05-26T12:14:01.326Z,3.10
2019-05-26T12:16:29.672Z,3.53
2019-05-26T12:18:57.342Z,1.97
2019-05-26T12:21:28.937Z,2.97
2019-05-26T12:23:56.956Z,2.60
2019-05-26T12:26:24.797Z,2.40
2019-05-26T12:29:08.569Z,3.67
2019-05-26T12:31:36.261Z,3.27
2019-05-26T12:34:13.550Z,1.87
2019-05-26T12:36:43.991Z,2.10
2019-05-26T12:39:12.427Z,2.07
2019-05-26T12:41:40.419Z,1.97
2019-05-26T12:44:10.922Z,1.83
2019-05-26T12:46:38.122Z,2.03
2019-05-26T12:49:12.442Z,2.00
2019-05-26T12:51:40.196Z,1.67
2019-05-26T12:54:08.033Z,1.90
2019-05-26T12:56:58.356Z,1.30
2019-05-26T12:59:26.105Z,1.70
2019-05-26T13:01:54.054Z,1.73
2019-05-26T13:04:21.904Z,1.87
2019-05-26T13:06:49.591Z,1.80
2019-05-26T13:09:17.714Z,2.20
2019-05-26T13:11:45.791Z,1.70
2019-05-26T13:14:13.427Z,1.53
2019-05-26T13:16:42.195Z,1.93
2019-05-26T13:19:09.870Z,1.83
2019-05-26T13:21:37.683Z,1.97
2019-05-26T13:24:32.287Z,2.70
2019-05-26T13:27:00.126Z,2.70
2019-05-26T13:29:28.178Z,1.50
2019-05-26T13:31:55.862Z,2.53
2019-05-26T13:34:35.909Z,1.40
2019-05-26T13:37:10.137Z,3.10
2019-05-26T13:40:51.550Z,1.53
2019-05-26T13:43:28.325Z,2.00
2019-05-26T13:56:53.938Z,1.57
2019-05-26T13:59:34.185Z,1.43
2019-05-26T14:02:01.781Z,1.23
2019-05-26T14:04:29.509Z,2.10
2019-05-26T14:07:07.705Z,2.00
2019-05-26T14:09:35.250Z,1.73
2019-05-26T14:12:03.086Z,1.87
2019-05-26T14:14:32.006Z,1.77
2019-05-26T14:17:01.497Z,1.53
2019-05-26T14:19:29.632Z,1.70
2019-05-26T14:21:57.276Z,1.90
2019-05-26T14:24:25.057Z,1.30
2019-05-26T14:26:52.839Z,2.33
2019-05-26T14:29:21.835Z,2.23
2019-05-26T14:31:52.691Z,1.50
2019-05-26T14:34:18.757Z,1.50
2019-05-26T14:37:57.831Z,1.97
2019-05-26T14:40:25.387Z,1.50
2019-05-26T14:42:56.512Z,2.33
2019-05-26T14:45:24.098Z,1.93
2019-05-26T14:47:51.761Z,2.30
2019-05-26T14:50:19.593Z,1.80
2019-05-26T14:52:47.137Z,2.07
2019-05-26T14:55:14.871Z,2.43
2019-05-26T14:57:42.832Z,2.50
2019-05-26T15:00:11.043Z,3.70
2019-05-26T15:02:38.652Z,2.57
2019-05-26T15:05:06.954Z,1.97
2019-05-26T15:07:34.565Z,3.70
2019-05-26T15:10:02.233Z,2.00
2019-05-26T15:12:42.957Z,2.70
2019-05-26T15:15:10.757Z,2.87
2019-05-26T15:17:38.441Z,3.23
2019-05-26T15:20:06.437Z,2.33
2019-05-26T15:22:34.073Z,2.00
2019-05-26T15:25:01.733Z,3.43
2019-05-26T15:27:29.402Z,2.63
2019-05-26T15:29:56.997Z,3.07
2019-05-26T15:32:26.742Z,2.90
2019-05-26T15:34:56.341Z,2.00
2019-05-26T15:37:25.665Z,2.23
2019-05-26T15:39:54.671Z,2.03
2019-05-26T15:42:23.557Z,2.50
2019-05-26T15:44:52.547Z,1.93
2019-05-26T15:47:21.261Z,2.13
2019-05-26T15:49:50.087Z,2.77
2019-05-26T15:52:19.302Z,2.13
2019-05-26T15:54:48.369Z,2.40
2019-05-26T15:57:17.274Z,1.83
2019-05-26T15:59:46.106Z,1.70
2019-05-26T16:02:14.999Z,1.97
2019-05-26T16:04:45.592Z,1.90
2019-05-26T16:07:14.820Z,3.60
2019-05-26T16:09:43.440Z,4.07
2019-05-26T16:12:12.434Z,3.13
2019-05-26T16:14:41.260Z,2.40
2019-05-26T16:17:10.073Z,2.90
2019-05-26T16:19:40.068Z,2.37
2019-05-26T16:22:08.808Z,2.23
2019-05-26T16:24:37.983Z,2.40
2019-05-26T16:27:18.847Z,2.00
2019-05-26T16:29:37.541Z,3.27
2019-05-26T16:32:06.423Z,3.43
2019-05-26T16:34:35.653Z,2.77
2019-05-26T16:37:04.486Z,1.40
2019-05-26T16:39:37.272Z,1.37
2019-05-26T16:42:04.218Z,1.70
2019-05-26T16:44:31.791Z,2.03
2019-05-26T16:46:59.469Z,1.80
2019-05-26T16:49:27.315Z,1.93
2019-05-26T16:51:54.991Z,2.03
2019-05-26T16:54:22.651Z,2.03
2019-05-26T16:56:50.217Z,1.87
2019-05-26T16:59:18.905Z,2.77
2019-05-26T17:01:46.568Z,1.57
2019-05-26T17:04:14.255Z,2.03
2019-05-26T17:06:41.801Z,2.10
2019-05-26T17:09:09.510Z,2.33
2019-05-26T17:11:37.081Z,2.27
2019-05-26T17:14:05.026Z,1.80
2019-05-26T17:16:32.631Z,2.13
2019-05-26T17:19:00.268Z,2.13
2019-05-26T17:21:27.990Z,2.30
2019-05-26T17:23:55.634Z,2.57
2019-05-26T17:26:23.439Z,2.67
2019-05-26T17:28:51.039Z,7.47
2019-05-26T17:31:18.660Z,2.93
2019-05-26T17:33:46.297Z,2.20
2019-05-26T17:36:14.093Z,2.17
2019-05-26T17:38:41.938Z,2.17
2019-05-26T17:41:09.661Z,2.93
2019-05-26T17:43:37.247Z,2.60
2019-05-26T17:46:04.977Z,2.50
2019-05-26T17:48:32.545Z,3.67
2019-05-26T17:51:00.127Z,2.50
2019-05-26T17:53:27.859Z,2.60
2019-05-26T17:55:55.465Z,2.57
2019-05-26T17:58:23.102Z,2.00
2019-05-26T18:00:50.748Z,3.10
2019-05-26T18:03:18.494Z,2.63
2019-05-26T18:05:46.105Z,2.33
2019-05-26T18:08:13.666Z,2.07
2019-05-26T18:10:41.283Z,3.37
2019-05-26T18:13:08.851Z,2.40
2019-05-26T18:15:36.409Z,5.90
2019-05-26T18:18:04.028Z,2.33
2019-05-26T18:20:31.743Z,3.00
2019-05-26T18:22:59.349Z,3.83
2019-05-26T18:25:27.005Z,2.83
2019-05-26T18:27:54.664Z,3.47
2019-05-26T18:30:22.630Z,2.80
2019-05-26T18:32:50.980Z,3.57
2019-05-26T18:35:18.504Z,4.33
2019-05-26T18:37:47.338Z,4.23
2019-05-26T18:40:15.268Z,3.27
2019-05-26T18:42:43.621Z,3.53
2019-05-26T18:45:11.639Z,3.03
2019-05-26T18:47:39.215Z,5.40
2019-05-26T18:50:07.169Z,3.60
2019-05-26T18:52:34.729Z,3.93
2019-05-26T18:55:11.118Z,3.57
2019-05-26T18:57:38.770Z,4.53
2019-05-26T19:00:06.914Z,5.00
2019-05-26T19:02:34.439Z,4.00
2019-05-26T19:05:02.351Z,4.43
2019-05-26T19:07:29.978Z,6.90
2019-05-26T19:09:57.529Z,4.40
2019-05-26T19:12:25.082Z,4.03
2019-05-26T19:14:52.681Z,4.80
2019-05-26T19:17:20.284Z,4.07
2019-05-26T19:19:47.909Z,4.10
2019-05-26T19:22:15.530Z,3.60
2019-05-26T19:24:43.116Z,4.20
2019-05-26T19:27:10.795Z,3.87
2019-05-26T19:29:38.373Z,4.90
2019-05-26T19:32:06.223Z,5.80
2019-05-26T19:34:33.814Z,3.87
2019-05-26T19:37:01.390Z,4.13
2019-05-26T19:39:29.119Z,5.47
2019-05-26T19:41:56.743Z,7.23
2019-05-26T19:44:24.339Z,5.10
2019-05-26T19:46:53.080Z,4.53
2019-05-26T19:49:20.875Z,5.27
2019-05-26T19:51:48.498Z,4.10
2019-05-26T19:54:16.372Z,5.97
2019-05-26T19:56:44.010Z,5.17
2019-05-26T19:59:11.586Z,5.37
2019-05-26T20:01:39.204Z,4.80
2019-05-26T20:04:06.830Z,4.27
2019-05-26T20:06:34.466Z,4.17
2019-05-26T20:09:02.243Z,4.07
2019-05-26T20:11:30.362Z,5.07
2019-05-26T20:13:57.965Z,4.50
2019-05-26T20:16:25.646Z,5.47
2019-05-26T20:18:53.342Z,4.23
2019-05-26T20:21:21.083Z,4.27
2019-05-26T20:23:48.687Z,4.43
2019-05-26T20:26:17.071Z,4.40
2019-05-26T20:28:44.744Z,4.47
2019-05-26T20:31:12.316Z,5.67
2019-05-26T20:33:39.878Z,4.50
2019-05-26T20:36:07.504Z,4.40
2019-05-26T20:38:35.187Z,3.33
2019-05-26T20:41:02.890Z,4.57
2019-05-26T20:43:30.542Z,4.53
2019-05-26T20:45:58.177Z,4.60
2019-05-26T20:48:25.846Z,3.73
2019-05-26T20:50:53.545Z,3.77
2019-05-26T20:53:21.187Z,4.30
2019-05-26T20:55:48.881Z,3.57
2019-05-26T20:58:16.509Z,4.53
2019-05-26T21:00:44.139Z,5.07
2019-05-26T21:03:11.745Z,4.43
2019-05-26T21:05:39.387Z,4.80
2019-05-26T21:08:07.042Z,4.67
2019-05-26T21:10:34.661Z,7.00
2019-05-26T21:13:02.244Z,5.57
2019-05-26T21:15:29.807Z,4.90
2019-05-26T21:17:57.556Z,4.40
2019-05-26T21:20:25.144Z,5.07
2019-05-26T21:22:52.776Z,4.87
2019-05-26T21:25:20.370Z,5.27
2019-05-26T21:27:47.964Z,5.30
2019-05-26T21:30:15.746Z,4.53
2019-05-26T21:32:44.035Z,5.87
2019-05-26T21:35:12.159Z,5.03
2019-05-26T21:37:39.836Z,4.77
2019-05-26T21:40:07.661Z,4.60
2019-05-26T21:42:35.269Z,5.47
2019-05-26T21:45:02.905Z,7.40
2019-05-26T21:47:30.481Z,5.10
2019-05-26T21:49:58.110Z,5.00
2019-05-26T21:52:25.708Z,5.00
2019-05-26T21:54:53.371Z,5.47
2019-05-26T21:57:20.989Z,5.43
2019-05-26T21:59:48.563Z,6.67
2019-05-26T22:02:16.215Z,4.93
2019-05-26T22:04:43.840Z,5.07
2019-05-26T22:07:11.995Z,6.20
2019-05-26T22:09:39.667Z,4.50
2019-05-26T22:12:07.219Z,4.70
2019-05-26T22:14:34.821Z,5.17
2019-05-26T22:17:02.557Z,4.53
2019-05-26T22:19:30.102Z,5.60
2019-05-26T22:21:57.674Z,4.80
2019-05-26T22:24:25.250Z,3.90
2019-05-26T22:26:52.789Z,4.80
2019-05-26T22:29:20.745Z,5.53
2019-05-26T22:31:48.471Z,4.30
2019-05-26T22:34:16.015Z,6.87
2019-05-26T22:36:43.662Z,4.13
2019-05-26T22:39:11.207Z,5.50
2019-05-26T22:41:38.783Z,5.63
2019-05-26T22:44:06.324Z,5.10
2019-05-26T22:46:33.939Z,4.10
2019-05-26T22:49:01.527Z,6.07
2019-05-26T22:51:29.570Z,5.17
2019-05-26T22:53:57.211Z,5.80
2019-05-26T22:56:24.777Z,4.67
2019-05-26T22:58:52.364Z,5.13
2019-05-26T23:01:20.044Z,5.10
2019-05-26T23:03:47.660Z,5.20
2019-05-26T23:06:15.263Z,5.00
2019-05-26T23:08:42.891Z,6.53
2019-05-26T23:11:10.498Z,6.30
2019-05-26T23:13:38.064Z,5.07
2019-05-26T23:16:05.742Z,4.87
2019-05-26T23:18:33.237Z,5.20
2019-05-26T23:21:00.919Z,6.03
2019-05-26T23:23:28.551Z,6.73
2019-05-26T23:25:56.146Z,6.13
2019-05-26T23:28:23.757Z,4.90
2019-05-26T23:30:51.333Z,5.90
2019-05-26T23:33:18.872Z,6.17
2019-05-26T23:35:46.433Z,5.70
2019-05-26T23:38:14.015Z,5.80
2019-05-26T23:40:41.658Z,6.33
2019-05-26T23:43:09.278Z,5.13
2019-05-26T23:45:36.939Z,5.17
2019-05-26T23:48:04.541Z,5.87
2019-05-26T23:50:32.091Z,4.90
2019-05-26T23:52:59.690Z,6.17
2019-05-26T23:55:27.258Z,5.83
2019-05-26T23:57:54.931Z,5.40
